Cresskill, New Jersey
Current Conditions -  °F | °C
As of 11:51 PM on Friday 19 Dec 2014 (Local Time) from KTEB Reporting Station
Overcast Overcast  
Wind Chill: 26°   Ceiling: 3000
Heat Index: 32°   Visibility: 10mi
Dew Point: 21°   Wind: 7mph
Humidity: 64%   Direction: 330°NNW
Pressure: 30.2"   Gusts: NA
Location:  40.94°N, 73.96°W
Report Text: KTEB 200451Z 33006KT 10SM OVC030 00/M06 A3020 RMK AO2 SLP226 T00001061 400331006
Loading
Personal Weather Stations






























Interactive Weather Map New forecast layout! Learn more

10-Day Weather Forecast

Advertisements
Track Severe Weather on mobile